sensor_id;sensor_type;location;lat;lon;timestamp;pressure;altitude;pressure_sealevel;temperature;humidity
19259;BME280;9763;48.780;9.212;2023-03-26T00:01:48;97939.72;;;12.55;66.65
19259;BME280;9763;48.780;9.212;2023-03-26T00:05:12;97928.16;;;12.57;67.02
19259;BME280;9763;48.780;9.212;2023-03-26T00:08:38;97929.81;;;12.58;66.64
19259;BME280;9763;48.780;9.212;2023-03-26T00:12:02;97932.94;;;12.52;66.89
19259;BME280;9763;48.780;9.212;2023-03-26T00:15:26;97931.88;;;12.44;67.09
19259;BME280;9763;48.780;9.212;2023-03-26T00:18:52;97930.00;;;12.35;66.70
19259;BME280;9763;48.780;9.212;2023-03-26T00:22:15;97934.78;;;12.30;67.29
19259;BME280;9763;48.780;9.212;2023-03-26T00:25:39;97927.06;;;12.28;67.17
19259;BME280;9763;48.780;9.212;2023-03-26T00:29:05;97929.28;;;12.33;67.15
19259;BME280;9763;48.780;9.212;2023-03-26T00:32:31;97938.44;;;12.38;66.77
19259;BME280;9763;48.780;9.212;2023-03-26T00:35:59;97926.91;;;12.41;66.72
19259;BME280;9763;48.780;9.212;2023-03-26T00:39:26;97928.94;;;12.37;67.27
19259;BME280;9763;48.780;9.212;2023-03-26T00:42:51;97925.59;;;12.35;67.22
19259;BME280;9763;48.780;9.212;2023-03-26T00:46:15;97917.88;;;12.34;66.84
19259;BME280;9763;48.780;9.212;2023-03-26T00:49:40;97909.34;;;12.32;67.17
19259;BME280;9763;48.780;9.212;2023-03-26T00:53:05;97911.25;;;12.30;66.92
19259;BME280;9763;48.780;9.212;2023-03-26T00:56:30;97906.25;;;12.26;67.20
19259;BME280;9763;48.780;9.212;2023-03-26T00:59:54;97894.22;;;12.24;67.37
19259;BME280;9763;48.780;9.212;2023-03-26T01:03:19;97869.06;;;12.12;67.10
19259;BME280;9763;48.780;9.212;2023-03-26T01:06:50;97880.00;;;12.17;67.38
19259;BME280;9763;48.780;9.212;2023-03-26T01:10:17;97873.34;;;12.13;67.21
19259;BME280;9763;48.780;9.212;2023-03-26T01:13:46;97870.00;;;12.11;67.28
19259;BME280;9763;48.780;9.212;2023-03-26T01:17:12;97866.66;;;12.09;67.34
19259;BME280;9763;48.780;9.212;2023-03-26T01:20:39;97860.75;;;12.07;67.20
19259;BME280;9763;48.780;9.212;2023-03-26T01:24:09;97852.56;;;12.00;67.65
19259;BME280;9763;48.780;9.212;2023-03-26T01:27:37;97844.94;;;11.97;67.29
19259;BME280;9763;48.780;9.212;2023-03-26T01:31:08;97843.53;;;11.93;67.75
19259;BME280;9763;48.780;9.212;2023-03-26T01:34:47;97839.97;;;11.94;67.44
19259;BME280;9763;48.780;9.212;2023-03-26T01:38:22;97836.53;;;11.94;67.45
19259;BME280;9763;48.780;9.212;2023-03-26T01:41:52;97831.41;;;11.92;67.44
19259;BME280;9763;48.780;9.212;2023-03-26T01:45:22;97816.69;;;11.91;67.84
19259;BME280;9763;48.780;9.212;2023-03-26T01:48:49;97805.16;;;11.94;67.88
19259;BME280;9763;48.780;9.212;2023-03-26T01:52:16;97808.34;;;11.97;67.55
19259;BME280;9763;48.780;9.212;2023-03-26T01:55:51;97800.13;;;12.02;67.66
19259;BME280;9763;48.780;9.212;2023-03-26T01:59:45;97800.44;;;12.08;67.40
19259;BME280;9763;48.780;9.212;2023-03-26T02:03:21;97788.91;;;12.11;67.57
19259;BME280;9763;48.780;9.212;2023-03-26T02:06:54;97784.38;;;12.13;67.44
19259;BME280;9763;48.780;9.212;2023-03-26T02:10:26;97773.94;;;12.13;67.88
19259;BME280;9763;48.780;9.212;2023-03-26T02:13:52;97763.47;;;12.13;67.57
19259;BME280;9763;48.780;9.212;2023-03-26T02:17:17;97757.28;;;12.14;67.73
19259;BME280;9763;48.780;9.212;2023-03-26T02:20:45;97745.75;;;12.16;67.97
19259;BME280;9763;48.780;9.212;2023-03-26T02:24:09;97751.41;;;12.21;68.08
19259;BME280;9763;48.780;9.212;2023-03-26T02:27:33;97742.59;;;12.22;67.43
19259;BME280;9763;48.780;9.212;2023-03-26T02:30:57;97733.38;;;12.18;67.33
19259;BME280;9763;48.780;9.212;2023-03-26T02:34:25;97724.94;;;12.15;67.98
19259;BME280;9763;48.780;9.212;2023-03-26T02:37:49;97734.81;;;12.11;67.99
19259;BME280;9763;48.780;9.212;2023-03-26T02:41:15;97738.50;;;12.09;67.47
19259;BME280;9763;48.780;9.212;2023-03-26T02:44:53;97726.78;;;12.03;67.61
19259;BME280;9763;48.780;9.212;2023-03-26T02:48:35;97720.25;;;11.98;67.71
19259;BME280;9763;48.780;9.212;2023-03-26T02:52:09;97728.47;;;11.93;68.10
19259;BME280;9763;48.780;9.212;2023-03-26T02:55:33;97733.13;;;11.89;68.24
19259;BME280;9763;48.780;9.212;2023-03-26T02:58:58;97722.19;;;11.84;67.46
19259;BME280;9763;48.780;9.212;2023-03-26T03:02:22;97718.91;;;11.82;67.60
19259;BME280;9763;48.780;9.212;2023-03-26T03:05:48;97704.03;;;11.83;67.75
19259;BME280;9763;48.780;9.212;2023-03-26T03:09:33;97685.03;;;11.81;67.54
19259;BME280;9763;48.780;9.212;2023-03-26T03:13:17;97688.91;;;11.86;67.86
19259;BME280;9763;48.780;9.212;2023-03-26T03:16:42;97677.97;;;11.93;68.24
19259;BME280;9763;48.780;9.212;2023-03-26T03:20:09;97675.78;;;11.98;67.70
19259;BME280;9763;48.780;9.212;2023-03-26T03:23:35;97665.09;;;12.01;68.13
19259;BME280;9763;48.780;9.212;2023-03-26T03:27:06;97667.19;;;12.07;68.24
19259;BME280;9763;48.780;9.212;2023-03-26T03:30:41;97655.50;;;12.11;68.02
19259;BME280;9763;48.780;9.212;2023-03-26T03:34:13;97638.75;;;12.13;67.85
19259;BME280;9763;48.780;9.212;2023-03-26T03:37:42;97647.03;;;12.18;67.76
19259;BME280;9763;48.780;9.212;2023-03-26T03:41:07;97629.16;;;12.23;68.16
19259;BME280;9763;48.780;9.212;2023-03-26T03:44:36;97633.88;;;12.30;67.61
19259;BME280;9763;48.780;9.212;2023-03-26T03:48:08;97633.47;;;12.34;67.85
19259;BME280;9763;48.780;9.212;2023-03-26T03:51:38;97627.75;;;12.40;67.90
19259;BME280;9763;48.780;9.212;2023-03-26T03:55:13;97627.63;;;12.42;67.30
19259;BME280;9763;48.780;9.212;2023-03-26T03:58:42;97625.81;;;12.42;67.75
19259;BME280;9763;48.780;9.212;2023-03-26T04:02:12;97632.56;;;12.45;67.89
19259;BME280;9763;48.780;9.212;2023-03-26T04:05:44;97608.88;;;12.46;68.08
19259;BME280;9763;48.780;9.212;2023-03-26T04:09:12;97602.69;;;12.47;67.43
19259;BME280;9763;48.780;9.212;2023-03-26T04:12:36;97608.50;;;12.51;67.55
19259;BME280;9763;48.780;9.212;2023-03-26T04:16:02;97605.63;;;12.54;67.93
19259;BME280;9763;48.780;9.212;2023-03-26T04:19:28;97594.03;;;12.56;67.93
19259;BME280;9763;48.780;9.212;2023-03-26T04:22:53;97592.81;;;12.60;67.45
19259;BME280;9763;48.780;9.212;2023-03-26T04:26:20;97590.78;;;12.64;67.78
19259;BME280;9763;48.780;9.212;2023-03-26T04:29:59;97576.59;;;12.67;67.69
19259;BME280;9763;48.780;9.212;2023-03-26T04:33:25;97566.66;;;12.70;67.75
19259;BME280;9763;48.780;9.212;2023-03-26T04:36:51;97562.00;;;12.74;67.61
19259;BME280;9763;48.780;9.212;2023-03-26T04:40:21;97560.78;;;12.78;67.08
19259;BME280;9763;48.780;9.212;2023-03-26T04:43:52;97544.94;;;12.79;67.45
19259;BME280;9763;48.780;9.212;2023-03-26T04:47:28;97536.09;;;12.80;67.55
19259;BME280;9763;48.780;9.212;2023-03-26T04:50:52;97537.63;;;12.83;67.31
19259;BME280;9763;48.780;9.212;2023-03-26T04:54:20;97520.25;;;12.82;67.35
19259;BME280;9763;48.780;9.212;2023-03-26T04:57:55;97516.81;;;12.81;67.47
19259;BME280;9763;48.780;9.212;2023-03-26T05:01:39;97518.88;;;12.78;66.91
19259;BME280;9763;48.780;9.212;2023-03-26T05:05:10;97528.78;;;12.74;66.78
19259;BME280;9763;48.780;9.212;2023-03-26T05:08:34;97525.47;;;12.72;66.91
19259;BME280;9763;48.780;9.212;2023-03-26T05:12:00;97514.31;;;12.70;66.87
19259;BME280;9763;48.780;9.212;2023-03-26T05:15:30;97523.94;;;12.70;67.45
19259;BME280;9763;48.780;9.212;2023-03-26T05:18:53;97530.84;;;12.71;67.22
19259;BME280;9763;48.780;9.212;2023-03-26T05:22:18;97515.84;;;12.73;67.06
19259;BME280;9763;48.780;9.212;2023-03-26T05:26:02;97507.03;;;12.74;67.19
19259;BME280;9763;48.780;9.212;2023-03-26T05:29:27;97491.44;;;12.72;67.72
19259;BME280;9763;48.780;9.212;2023-03-26T05:32:51;97484.84;;;12.78;67.27
19259;BME280;9763;48.780;9.212;2023-03-26T05:36:20;97467.06;;;12.81;67.34
19259;BME280;9763;48.780;9.212;2023-03-26T05:39:55;97468.44;;;12.85;67.08
19259;BME280;9763;48.780;9.212;2023-03-26T05:43:35;97457.53;;;12.80;66.76
19259;BME280;9763;48.780;9.212;2023-03-26T05:47:14;97461.41;;;12.86;67.44
19259;BME280;9763;48.780;9.212;2023-03-26T05:50:39;97467.63;;;12.85;67.31
19259;BME280;9763;48.780;9.212;2023-03-26T05:54:03;97469.53;;;12.83;66.82
19259;BME280;9763;48.780;9.212;2023-03-26T05:57:56;97434.97;;;12.79;67.03
19259;BME280;9763;48.780;9.212;2023-03-26T06:01:38;97441.44;;;12.66;67.57
19259;BME280;9763;48.780;9.212;2023-03-26T06:05:08;97438.78;;;12.46;67.75
19259;BME280;9763;48.780;9.212;2023-03-26T06:08:55;97430.75;;;12.29;68.50
19259;BME280;9763;48.780;9.212;2023-03-26T06:12:24;97410.22;;;12.24;68.34
19259;BME280;9763;48.780;9.212;2023-03-26T06:15:48;97399.91;;;12.22;68.21
19259;BME280;9763;48.780;9.212;2023-03-26T06:19:26;97394.97;;;12.29;67.62
19259;BME280;9763;48.780;9.212;2023-03-26T06:23:06;97393.31;;;12.38;67.30
19259;BME280;9763;48.780;9.212;2023-03-26T06:26:40;97369.91;;;12.46;67.24
19259;BME280;9763;48.780;9.212;2023-03-26T06:30:16;97370.19;;;12.52;67.15
19259;BME280;9763;48.780;9.212;2023-03-26T06:33:58;97364.00;;;12.53;67.11
19259;BME280;9763;48.780;9.212;2023-03-26T06:37:22;97363.88;;;12.55;66.43
19259;BME280;9763;48.780;9.212;2023-03-26T06:40:53;97359.47;;;12.55;66.39
19259;BME280;9763;48.780;9.212;2023-03-26T06:44:20;97369.09;;;12.55;67.01
19259;BME280;9763;48.780;9.212;2023-03-26T06:48:02;97360.25;;;12.56;66.51
19259;BME280;9763;48.780;9.212;2023-03-26T06:52:01;97348.16;;;12.55;66.92
19259;BME280;9763;48.780;9.212;2023-03-26T06:56:05;97352.00;;;12.60;66.61
19259;BME280;9763;48.780;9.212;2023-03-26T06:59:49;97347.34;;;12.54;67.32
19259;BME280;9763;48.780;9.212;2023-03-26T07:03:48;97353.25;;;12.37;67.85
19259;BME280;9763;48.780;9.212;2023-03-26T07:07:32;97341.13;;;12.26;68.20
19259;BME280;9763;48.780;9.212;2023-03-26T07:11:17;97328.16;;;12.25;68.33
19259;BME280;9763;48.780;9.212;2023-03-26T07:15:02;97332.56;;;12.34;68.51
19259;BME280;9763;48.780;9.212;2023-03-26T07:18:47;97315.25;;;12.43;68.06
19259;BME280;9763;48.780;9.212;2023-03-26T07:22:18;97314.13;;;12.45;68.24
19259;BME280;9763;48.780;9.212;2023-03-26T07:26:12;97308.34;;;12.51;67.87
19259;BME280;9763;48.780;9.212;2023-03-26T07:29:57;97303.81;;;12.53;68.31
19259;BME280;9763;48.780;9.212;2023-03-26T07:33:50;97290.41;;;12.56;68.22
19259;BME280;9763;48.780;9.212;2023-03-26T07:37:42;97277.19;;;12.58;68.25
19259;BME280;9763;48.780;9.212;2023-03-26T07:41:33;97276.38;;;12.57;68.17
19259;BME280;9763;48.780;9.212;2023-03-26T07:45:24;97275.97;;;12.52;68.88
19259;BME280;9763;48.780;9.212;2023-03-26T07:49:21;97251.47;;;12.34;69.44
19259;BME280;9763;48.780;9.212;2023-03-26T07:52:55;97270.31;;;12.47;70.16
19259;BME280;9763;48.780;9.212;2023-03-26T07:56:47;97256.69;;;12.44;71.12
19259;BME280;9763;48.780;9.212;2023-03-26T08:00:40;97249.81;;;12.43;70.97
19259;BME280;9763;48.780;9.212;2023-03-26T08:04:33;97256.44;;;12.37;71.57
19259;BME280;9763;48.780;9.212;2023-03-26T08:08:24;97258.91;;;12.39;71.93
19259;BME280;9763;48.780;9.212;2023-03-26T08:12:19;97254.38;;;12.41;72.41
19259;BME280;9763;48.780;9.212;2023-03-26T08:15:53;97253.13;;;12.35;73.29
19259;BME280;9763;48.780;9.212;2023-03-26T08:19:36;97231.25;;;12.26;73.28
19259;BME280;9763;48.780;9.212;2023-03-26T08:23:07;97220.22;;;12.23;74.17
19259;BME280;9763;48.780;9.212;2023-03-26T08:26:40;97211.69;;;12.21;74.29
19259;BME280;9763;48.780;9.212;2023-03-26T08:30:10;97206.63;;;12.19;74.58
19259;BME280;9763;48.780;9.212;2023-03-26T08:33:38;97206.19;;;12.24;75.36
19259;BME280;9763;48.780;9.212;2023-03-26T08:37:04;97206.19;;;12.24;75.20
19259;BME280;9763;48.780;9.212;2023-03-26T08:44:55;97190.22;;;12.17;76.12
19259;BME280;9763;48.780;9.212;2023-03-26T08:49:32;97191.88;;;12.28;76.62
19259;BME280;9763;48.780;9.212;2023-03-26T08:53:27;97189.81;;;12.32;77.17
19259;BME280;9763;48.780;9.212;2023-03-26T08:57:23;97194.44;;;12.47;77.66
19259;BME280;9763;48.780;9.212;2023-03-26T09:01:10;97190.41;;;12.62;77.41
19259;BME280;9763;48.780;9.212;2023-03-26T09:05:16;97188.06;;;12.59;77.64
19259;BME280;9763;48.780;9.212;2023-03-26T09:09:17;97163.41;;;12.62;78.31
19259;BME280;9763;48.780;9.212;2023-03-26T09:21:45;97168.09;;;13.86;78.86
19259;BME280;9763;48.780;9.212;2023-03-26T09:25:39;97185.00;;;13.91;79.84
19259;BME280;9763;48.780;9.212;2023-03-26T09:34:00;97190.44;;;14.51;79.61
19259;BME280;9763;48.780;9.212;2023-03-26T09:41:35;97174.56;;;15.37;81.43
19259;BME280;9763;48.780;9.212;2023-03-26T09:45:38;97167.47;;;17.47;82.99
19259;BME280;9763;48.780;9.212;2023-03-26T09:49:26;97155.88;;;19.93;76.10
19259;BME280;9763;48.780;9.212;2023-03-26T09:53:02;97152.44;;;22.78;68.63
19259;BME280;9763;48.780;9.212;2023-03-26T09:56:37;97138.41;;;23.67;64.05
19259;BME280;9763;48.780;9.212;2023-03-26T10:00:25;97145.75;;;23.78;62.47
19259;BME280;9763;48.780;9.212;2023-03-26T10:04:23;97141.72;;;23.11;61.36
19259;BME280;9763;48.780;9.212;2023-03-26T10:12:05;97140.22;;;21.50;63.34
19259;BME280;9763;48.780;9.212;2023-03-26T10:15:53;97132.34;;;20.81;64.02
19259;BME280;9763;48.780;9.212;2023-03-26T10:19:30;97130.22;;;20.36;63.96
19259;BME280;9763;48.780;9.212;2023-03-26T10:23:13;97140.91;;;19.78;64.64
19259;BME280;9763;48.780;9.212;2023-03-26T10:27:00;97149.50;;;19.15;65.54
19259;BME280;9763;48.780;9.212;2023-03-26T10:30:42;97142.06;;;18.89;66.34
19259;BME280;9763;48.780;9.212;2023-03-26T10:34:30;97130.47;;;18.76;65.10
19259;BME280;9763;48.780;9.212;2023-03-26T10:38:13;97131.88;;;18.49;65.46
19259;BME280;9763;48.780;9.212;2023-03-26T10:41:42;97138.44;;;18.53;65.29
19259;BME280;9763;48.780;9.212;2023-03-26T10:45:28;97115.59;;;19.19;65.66
19259;BME280;9763;48.780;9.212;2023-03-26T10:49:23;97114.91;;;19.89;61.41
19259;BME280;9763;48.780;9.212;2023-03-26T10:52:52;97121.00;;;20.60;59.81
19259;BME280;9763;48.780;9.212;2023-03-26T10:56:24;97128.00;;;21.08;59.50
19259;BME280;9763;48.780;9.212;2023-03-26T10:59:50;97134.38;;;21.81;58.18
19259;BME280;9763;48.780;9.212;2023-03-26T11:07:19;97090.34;;;24.80;55.28
19259;BME280;9763;48.780;9.212;2023-03-26T11:10:49;97122.81;;;25.49;52.79
19259;BME280;9763;48.780;9.212;2023-03-26T11:14:22;97126.13;;;26.46;51.00
19259;BME280;9763;48.780;9.212;2023-03-26T11:18:09;97122.78;;;26.74;49.61
19259;BME280;9763;48.780;9.212;2023-03-26T11:21:39;97120.16;;;27.26;47.44
19259;BME280;9763;48.780;9.212;2023-03-26T11:25:38;97111.41;;;27.71;46.95
19259;BME280;9763;48.780;9.212;2023-03-26T11:29:21;97107.47;;;28.07;46.79
19259;BME280;9763;48.780;9.212;2023-03-26T11:32:57;97100.41;;;28.51;45.89
19259;BME280;9763;48.780;9.212;2023-03-26T11:36:25;97094.13;;;28.79;45.09
19259;BME280;9763;48.780;9.212;2023-03-26T11:39:56;97080.22;;;28.15;44.35
19259;BME280;9763;48.780;9.212;2023-03-26T11:43:28;97090.44;;;27.28;44.83
19259;BME280;9763;48.780;9.212;2023-03-26T11:46:57;97094.28;;;26.68;45.99
19259;BME280;9763;48.780;9.212;2023-03-26T11:50:29;97067.50;;;26.57;44.26
19259;BME280;9763;48.780;9.212;2023-03-26T11:53:55;97077.97;;;25.70;44.43
19259;BME280;9763;48.780;9.212;2023-03-26T11:57:23;97063.88;;;24.78;44.76
19259;BME280;9763;48.780;9.212;2023-03-26T12:00:49;97065.72;;;24.59;45.44
19259;BME280;9763;48.780;9.212;2023-03-26T12:04:18;97076.41;;;24.77;45.34
19259;BME280;9763;48.780;9.212;2023-03-26T12:07:52;97067.84;;;24.94;44.70
19259;BME280;9763;48.780;9.212;2023-03-26T12:11:18;97072.94;;;24.95;45.45
19259;BME280;9763;48.780;9.212;2023-03-26T12:14:46;97080.97;;;25.43;45.63
19259;BME280;9763;48.780;9.212;2023-03-26T12:18:23;97104.19;;;25.43;41.63
19259;BME280;9763;48.780;9.212;2023-03-26T12:21:51;97100.53;;;24.46;42.00
19259;BME280;9763;48.780;9.212;2023-03-26T12:25:17;97089.91;;;23.58;43.22
19259;BME280;9763;48.780;9.212;2023-03-26T12:28:46;97088.09;;;23.52;45.13
19259;BME280;9763;48.780;9.212;2023-03-26T12:32:13;97085.44;;;24.09;45.21
19259;BME280;9763;48.780;9.212;2023-03-26T12:35:37;97076.63;;;24.58;45.63
19259;BME280;9763;48.780;9.212;2023-03-26T12:39:27;97065.25;;;25.35;45.37
19259;BME280;9763;48.780;9.212;2023-03-26T12:43:30;97077.59;;;24.63;44.56
19259;BME280;9763;48.780;9.212;2023-03-26T12:47:20;97075.81;;;23.51;45.95
19259;BME280;9763;48.780;9.212;2023-03-26T12:51:11;97078.81;;;22.39;43.99
19259;BME280;9763;48.780;9.212;2023-03-26T12:54:48;97089.97;;;21.42;45.46
19259;BME280;9763;48.780;9.212;2023-03-26T12:58:30;97069.97;;;20.92;47.05
19259;BME280;9763;48.780;9.212;2023-03-26T13:02:10;97074.81;;;21.23;47.26
19259;BME280;9763;48.780;9.212;2023-03-26T13:05:51;97064.47;;;22.47;46.27
19259;BME280;9763;48.780;9.212;2023-03-26T13:09:31;97051.88;;;23.76;44.47
19259;BME280;9763;48.780;9.212;2023-03-26T13:13:09;97041.72;;;24.59;43.36
19259;BME280;9763;48.780;9.212;2023-03-26T13:16:41;97029.78;;;25.28;42.98
19259;BME280;9763;48.780;9.212;2023-03-26T13:20:18;97029.63;;;24.57;43.80
19259;BME280;9763;48.780;9.212;2023-03-26T13:23:51;97033.53;;;23.61;45.26
19259;BME280;9763;48.780;9.212;2023-03-26T13:27:30;97031.66;;;22.86;46.83
19259;BME280;9763;48.780;9.212;2023-03-26T13:31:06;97020.38;;;22.13;46.64
19259;BME280;9763;48.780;9.212;2023-03-26T13:34:38;97016.03;;;21.52;46.67
19259;BME280;9763;48.780;9.212;2023-03-26T13:38:08;97021.44;;;20.98;47.11
19259;BME280;9763;48.780;9.212;2023-03-26T13:41:51;97020.63;;;20.57;48.06
19259;BME280;9763;48.780;9.212;2023-03-26T13:45:31;97017.13;;;20.15;48.50
19259;BME280;9763;48.780;9.212;2023-03-26T13:49:02;97009.53;;;19.84;49.57
19259;BME280;9763;48.780;9.212;2023-03-26T13:52:33;97007.50;;;19.58;49.16
19259;BME280;9763;48.780;9.212;2023-03-26T13:56:00;96988.53;;;19.33;50.05
19259;BME280;9763;48.780;9.212;2023-03-26T13:59:30;97005.09;;;19.21;50.03
19259;BME280;9763;48.780;9.212;2023-03-26T14:03:01;96985.63;;;19.07;50.48
19259;BME280;9763;48.780;9.212;2023-03-26T14:06:38;97004.25;;;18.99;50.65
19259;BME280;9763;48.780;9.212;2023-03-26T14:10:07;97001.28;;;18.87;50.82
19259;BME280;9763;48.780;9.212;2023-03-26T14:13:37;96997.56;;;18.82;50.88
19259;BME280;9763;48.780;9.212;2023-03-26T14:17:10;96994.41;;;18.72;50.87
19259;BME280;9763;48.780;9.212;2023-03-26T14:20:55;96987.81;;;18.53;51.59
19259;BME280;9763;48.780;9.212;2023-03-26T14:24:58;97002.16;;;18.29;51.50
19259;BME280;9763;48.780;9.212;2023-03-26T14:32:51;97035.88;;;17.75;49.74
19259;BME280;9763;48.780;9.212;2023-03-26T14:36:27;97043.91;;;17.36;48.49
19259;BME280;9763;48.780;9.212;2023-03-26T14:40:26;97085.00;;;16.99;48.59
19259;BME280;9763;48.780;9.212;2023-03-26T14:47:51;97108.13;;;15.77;52.26
19259;BME280;9763;48.780;9.212;2023-03-26T14:51:39;97110.13;;;15.17;55.31
19259;BME280;9763;48.780;9.212;2023-03-26T14:55:14;97093.38;;;14.75;57.72
19259;BME280;9763;48.780;9.212;2023-03-26T15:08:07;97080.13;;;14.25;64.86
19259;BME280;9763;48.780;9.212;2023-03-26T15:11:46;97094.41;;;14.23;65.56
19259;BME280;9763;48.780;9.212;2023-03-26T15:15:38;97098.63;;;14.16;65.76
19259;BME280;9763;48.780;9.212;2023-03-26T15:19:58;97105.31;;;14.10;66.41
19259;BME280;9763;48.780;9.212;2023-03-26T15:23:50;97105.09;;;14.03;66.76
19259;BME280;9763;48.780;9.212;2023-03-26T15:27:45;97123.41;;;13.95;66.52
19259;BME280;9763;48.780;9.212;2023-03-26T15:31:33;97124.00;;;13.89;67.43
19259;BME280;9763;48.780;9.212;2023-03-26T15:36:16;97124.09;;;13.80;66.64
19259;BME280;9763;48.780;9.212;2023-03-26T15:40:03;97116.75;;;13.65;66.55
19259;BME280;9763;48.780;9.212;2023-03-26T15:44:11;97119.63;;;13.54;66.19
19259;BME280;9763;48.780;9.212;2023-03-26T15:47:57;97116.94;;;13.46;65.42
19259;BME280;9763;48.780;9.212;2023-03-26T15:51:42;97119.84;;;13.43;64.95
19259;BME280;9763;48.780;9.212;2023-03-26T15:55:24;97091.31;;;13.40;65.02
19259;BME280;9763;48.780;9.212;2023-03-26T15:58:55;97114.81;;;13.32;64.99
19259;BME280;9763;48.780;9.212;2023-03-26T16:02:32;97107.91;;;13.31;64.37
19259;BME280;9763;48.780;9.212;2023-03-26T16:06:28;97091.22;;;13.32;64.22
19259;BME280;9763;48.780;9.212;2023-03-26T16:10:17;97095.44;;;13.25;63.89
19259;BME280;9763;48.780;9.212;2023-03-26T16:13:49;97090.19;;;13.25;63.51
19259;BME280;9763;48.780;9.212;2023-03-26T16:17:18;97096.75;;;13.29;63.19
19259;BME280;9763;48.780;9.212;2023-03-26T16:20:48;97074.66;;;13.14;63.29
19259;BME280;9763;48.780;9.212;2023-03-26T16:24:27;97099.78;;;13.34;62.26
19259;BME280;9763;48.780;9.212;2023-03-26T16:28:26;97095.44;;;13.25;62.61
19259;BME280;9763;48.780;9.212;2023-03-26T16:32:15;97113.69;;;13.34;62.15
19259;BME280;9763;48.780;9.212;2023-03-26T16:35:58;97122.00;;;13.30;62.30
19259;BME280;9763;48.780;9.212;2023-03-26T16:39:38;97136.66;;;13.23;61.98
19259;BME280;9763;48.780;9.212;2023-03-26T16:47:11;97167.19;;;13.05;61.72
19259;BME280;9763;48.780;9.212;2023-03-26T16:50:43;97160.75;;;12.99;61.81
19259;BME280;9763;48.780;9.212;2023-03-26T16:54:18;97161.34;;;12.93;61.14
19259;BME280;9763;48.780;9.212;2023-03-26T16:57:52;97164.53;;;12.87;61.52
19259;BME280;9763;48.780;9.212;2023-03-26T17:01:28;97168.53;;;12.81;61.63
19259;BME280;9763;48.780;9.212;2023-03-26T17:05:06;97162.94;;;12.76;61.64
19259;BME280;9763;48.780;9.212;2023-03-26T17:08:38;97160.06;;;12.70;60.98
19259;BME280;9763;48.780;9.212;2023-03-26T17:12:13;97172.63;;;12.66;61.40
19259;BME280;9763;48.780;9.212;2023-03-26T17:15:46;97172.22;;;12.61;61.64
19259;BME280;9763;48.780;9.212;2023-03-26T17:19:25;97172.50;;;12.58;61.71
19259;BME280;9763;48.780;9.212;2023-03-26T17:23:01;97170.00;;;12.56;61.45
19259;BME280;9763;48.780;9.212;2023-03-26T17:26:43;97162.34;;;12.55;61.49
19259;BME280;9763;48.780;9.212;2023-03-26T17:30:39;97174.72;;;12.53;61.52
19259;BME280;9763;48.780;9.212;2023-03-26T17:34:38;97181.06;;;12.50;61.74
19259;BME280;9763;48.780;9.212;2023-03-26T17:42:25;97165.13;;;12.34;61.83
19259;BME280;9763;48.780;9.212;2023-03-26T17:45:51;97174.34;;;12.38;61.99
19259;BME280;9763;48.780;9.212;2023-03-26T17:49:27;97180.69;;;12.36;62.08
19259;BME280;9763;48.780;9.212;2023-03-26T17:52:56;97188.81;;;12.33;62.07
19259;BME280;9763;48.780;9.212;2023-03-26T17:56:28;97189.81;;;12.32;61.77
19259;BME280;9763;48.780;9.212;2023-03-26T17:59:56;97191.59;;;12.31;62.33
19259;BME280;9763;48.780;9.212;2023-03-26T18:03:27;97189.09;;;12.30;62.27
19259;BME280;9763;48.780;9.212;2023-03-26T18:07:07;97189.38;;;12.26;62.27
19259;BME280;9763;48.780;9.212;2023-03-26T18:11:00;97193.09;;;12.24;62.01
19259;BME280;9763;48.780;9.212;2023-03-26T18:14:51;97190.91;;;12.19;62.32
19259;BME280;9763;48.780;9.212;2023-03-26T18:18:24;97189.53;;;12.15;62.08
19259;BME280;9763;48.780;9.212;2023-03-26T18:21:52;97195.03;;;12.12;62.30
19259;BME280;9763;48.780;9.212;2023-03-26T18:25:22;97188.84;;;12.13;62.19
19259;BME280;9763;48.780;9.212;2023-03-26T18:28:50;97189.13;;;12.10;62.39
19259;BME280;9763;48.780;9.212;2023-03-26T18:32:19;97182.66;;;12.05;62.20
19259;BME280;9763;48.780;9.212;2023-03-26T18:35:50;97180.19;;;12.03;62.21
19259;BME280;9763;48.780;9.212;2023-03-26T18:39:15;97179.50;;;12.01;62.49
19259;BME280;9763;48.780;9.212;2023-03-26T18:42:44;97181.00;;;12.04;62.08
19259;BME280;9763;48.780;9.212;2023-03-26T18:46:11;97188.88;;;12.04;62.47
19259;BME280;9763;48.780;9.212;2023-03-26T18:49:36;97186.25;;;12.04;62.46
19259;BME280;9763;48.780;9.212;2023-03-26T18:53:02;97188.31;;;12.00;62.31
19259;BME280;9763;48.780;9.212;2023-03-26T18:56:29;97198.19;;;11.97;62.17
19259;BME280;9763;48.780;9.212;2023-03-26T19:00:07;97178.41;;;11.94;62.64
19259;BME280;9763;48.780;9.212;2023-03-26T19:03:40;97176.19;;;11.89;62.02
19259;BME280;9763;48.780;9.212;2023-03-26T19:07:10;97173.16;;;11.84;62.27
19259;BME280;9763;48.780;9.212;2023-03-26T19:10:37;97171.94;;;11.79;62.21
19259;BME280;9763;48.780;9.212;2023-03-26T19:14:07;97157.03;;;11.60;62.50
19259;BME280;9763;48.780;9.212;2023-03-26T19:17:40;97179.19;;;11.66;62.54
19259;BME280;9763;48.780;9.212;2023-03-26T19:21:06;97183.03;;;11.62;62.84
19259;BME280;9763;48.780;9.212;2023-03-26T19:24:31;97180.56;;;11.60;62.68
19259;BME280;9763;48.780;9.212;2023-03-26T19:27:57;97183.84;;;11.62;62.92
19259;BME280;9763;48.780;9.212;2023-03-26T19:31:24;97177.69;;;11.63;62.67
19259;BME280;9763;48.780;9.212;2023-03-26T19:34:51;97178.38;;;11.65;62.20
19259;BME280;9763;48.780;9.212;2023-03-26T19:38:22;97166.13;;;11.66;62.61
19259;BME280;9763;48.780;9.212;2023-03-26T19:41:50;97168.75;;;11.66;62.23
19259;BME280;9763;48.780;9.212;2023-03-26T19:45:18;97172.88;;;11.68;62.67
19259;BME280;9763;48.780;9.212;2023-03-26T19:48:42;97171.50;;;11.64;62.61
19259;BME280;9763;48.780;9.212;2023-03-26T19:52:12;97163.25;;;11.59;62.63
19259;BME280;9763;48.780;9.212;2023-03-26T19:55:39;97159.50;;;11.52;62.85
19259;BME280;9763;48.780;9.212;2023-03-26T19:59:04;97149.88;;;11.43;62.72
19259;BME280;9763;48.780;9.212;2023-03-26T20:02:30;97159.22;;;11.36;62.52
19259;BME280;9763;48.780;9.212;2023-03-26T20:05:55;97152.75;;;11.30;62.75
19259;BME280;9763;48.780;9.212;2023-03-26T20:09:19;97159.63;;;11.31;62.61
19259;BME280;9763;48.780;9.212;2023-03-26T20:12:44;97156.88;;;11.33;62.86